sensor_id;sensor_type;location;lat;lon;timestamp;temperature;humidity
47226;DHT22;32965;64.142;-21.912;2022-07-05T00:00:18;11.20;89.50
47226;DHT22;32965;64.142;-21.912;2022-07-05T00:02:44;11.20;89.60
47226;DHT22;32965;64.142;-21.912;2022-07-05T00:05:11;11.20;89.60
47226;DHT22;32965;64.142;-21.912;2022-07-05T00:07:38;11.20;89.50
47226;DHT22;32965;64.142;-21.912;2022-07-05T00:10:04;11.20;89.60
47226;DHT22;32965;64.142;-21.912;2022-07-05T00:12:31;11.20;89.60
47226;DHT22;32965;64.142;-21.912;2022-07-05T00:15:00;11.20;89.40
47226;DHT22;32965;64.142;-21.912;2022-07-05T00:17:28;11.20;89.80
47226;DHT22;32965;64.142;-21.912;2022-07-05T00:19:54;10.50;89.40
47226;DHT22;32965;64.142;-21.912;2022-07-05T00:22:20;11.20;89.30
47226;DHT22;32965;64.142;-21.912;2022-07-05T00:24:46;11.10;89.30
47226;DHT22;32965;64.142;-21.912;2022-07-05T00:27:11;11.00;89.70
47226;DHT22;32965;64.142;-21.912;2022-07-05T00:29:37;11.00;90.00
47226;DHT22;32965;64.142;-21.912;2022-07-05T00:32:03;10.90;90.10
47226;DHT22;32965;64.142;-21.912;2022-07-05T00:34:29;10.80;90.30
47226;DHT22;32965;64.142;-21.912;2022-07-05T00:37:02;10.80;90.50
47226;DHT22;32965;64.142;-21.912;2022-07-05T00:39:29;10.80;90.60
47226;DHT22;32965;64.142;-21.912;2022-07-05T00:41:55;10.80;90.70
47226;DHT22;32965;64.142;-21.912;2022-07-05T00:44:37;10.80;90.70
47226;DHT22;32965;64.142;-21.912;2022-07-05T00:47:07;10.90;90.70
47226;DHT22;32965;64.142;-21.912;2022-07-05T00:49:34;10.90;91.00
47226;DHT22;32965;64.142;-21.912;2022-07-05T00:52:00;10.90;91.00
47226;DHT22;32965;64.142;-21.912;2022-07-05T00:54:27;11.00;91.10
47226;DHT22;32965;64.142;-21.912;2022-07-05T00:56:54;11.00;91.00
47226;DHT22;32965;64.142;-21.912;2022-07-05T00:59:22;11.10;90.90
47226;DHT22;32965;64.142;-21.912;2022-07-05T01:01:48;11.00;90.80
47226;DHT22;32965;64.142;-21.912;2022-07-05T01:04:14;11.10;90.80
47226;DHT22;32965;64.142;-21.912;2022-07-05T01:06:42;11.10;90.80
47226;DHT22;32965;64.142;-21.912;2022-07-05T01:09:14;11.00;90.70
47226;DHT22;32965;64.142;-21.912;2022-07-05T01:11:43;11.10;90.80
47226;DHT22;32965;64.142;-21.912;2022-07-05T01:14:12;11.00;90.50
47226;DHT22;32965;64.142;-21.912;2022-07-05T01:16:38;11.00;90.60
47226;DHT22;32965;64.142;-21.912;2022-07-05T01:19:08;10.90;90.70
47226;DHT22;32965;64.142;-21.912;2022-07-05T01:21:40;10.80;90.80
47226;DHT22;32965;64.142;-21.912;2022-07-05T01:24:17;10.80;90.80
47226;DHT22;32965;64.142;-21.912;2022-07-05T01:26:45;10.80;90.80
47226;DHT22;32965;64.142;-21.912;2022-07-05T01:29:11;10.80;90.90
47226;DHT22;32965;64.142;-21.912;2022-07-05T01:31:38;10.80;90.90
47226;DHT22;32965;64.142;-21.912;2022-07-05T01:34:05;10.80;90.90
47226;DHT22;32965;64.142;-21.912;2022-07-05T01:36:33;10.90;91.00
47226;DHT22;32965;64.142;-21.912;2022-07-05T01:39:01;10.90;91.00
47226;DHT22;32965;64.142;-21.912;2022-07-05T01:41:27;10.90;91.00
47226;DHT22;32965;64.142;-21.912;2022-07-05T01:43:53;10.90;90.90
47226;DHT22;32965;64.142;-21.912;2022-07-05T01:46:22;11.00;90.90
47226;DHT22;32965;64.142;-21.912;2022-07-05T01:48:52;11.00;90.90
47226;DHT22;32965;64.142;-21.912;2022-07-05T01:54:14;11.00;90.70
47226;DHT22;32965;64.142;-21.912;2022-07-05T01:56:40;11.00;90.60
47226;DHT22;32965;64.142;-21.912;2022-07-05T01:59:06;11.00;90.90
47226;DHT22;32965;64.142;-21.912;2022-07-05T02:01:37;11.00;90.80
47226;DHT22;32965;64.142;-21.912;2022-07-05T02:04:06;11.10;90.80
47226;DHT22;32965;64.142;-21.912;2022-07-05T02:06:33;11.10;90.80
47226;DHT22;32965;64.142;-21.912;2022-07-05T02:09:00;11.10;90.70
47226;DHT22;32965;64.142;-21.912;2022-07-05T02:11:26;11.10;90.70
47226;DHT22;32965;64.142;-21.912;2022-07-05T02:13:52;11.10;90.60
47226;DHT22;32965;64.142;-21.912;2022-07-05T02:16:23;11.10;90.50
47226;DHT22;32965;64.142;-21.912;2022-07-05T02:18:48;11.00;90.50
47226;DHT22;32965;64.142;-21.912;2022-07-05T02:21:14;11.00;90.60
47226;DHT22;32965;64.142;-21.912;2022-07-05T02:23:40;11.00;90.60
47226;DHT22;32965;64.142;-21.912;2022-07-05T02:26:06;11.00;90.70
47226;DHT22;32965;64.142;-21.912;2022-07-05T02:28:32;11.00;90.60
47226;DHT22;32965;64.142;-21.912;2022-07-05T02:30:58;11.00;90.60
47226;DHT22;32965;64.142;-21.912;2022-07-05T02:33:24;11.00;90.60
47226;DHT22;32965;64.142;-21.912;2022-07-05T02:35:50;11.00;90.70
47226;DHT22;32965;64.142;-21.912;2022-07-05T02:38:16;10.90;90.60
47226;DHT22;32965;64.142;-21.912;2022-07-05T02:40:43;10.90;90.70
47226;DHT22;32965;64.142;-21.912;2022-07-05T02:43:09;10.90;90.80
47226;DHT22;32965;64.142;-21.912;2022-07-05T02:45:36;10.90;90.70
47226;DHT22;32965;64.142;-21.912;2022-07-05T02:48:02;10.90;90.80
47226;DHT22;32965;64.142;-21.912;2022-07-05T02:50:28;10.80;90.80
47226;DHT22;32965;64.142;-21.912;2022-07-05T02:52:54;10.80;90.90
47226;DHT22;32965;64.142;-21.912;2022-07-05T02:55:20;10.80;91.00
47226;DHT22;32965;64.142;-21.912;2022-07-05T02:57:45;10.80;91.00
47226;DHT22;32965;64.142;-21.912;2022-07-05T03:00:13;10.90;91.00
47226;DHT22;32965;64.142;-21.912;2022-07-05T03:02:39;10.70;90.90
47226;DHT22;32965;64.142;-21.912;2022-07-05T03:05:06;10.70;91.00
47226;DHT22;32965;64.142;-21.912;2022-07-05T03:07:31;10.80;91.20
47226;DHT22;32965;64.142;-21.912;2022-07-05T03:09:58;10.70;91.30
47226;DHT22;32965;64.142;-21.912;2022-07-05T03:12:27;10.70;91.40
47226;DHT22;32965;64.142;-21.912;2022-07-05T03:14:53;10.70;91.50
47226;DHT22;32965;64.142;-21.912;2022-07-05T03:17:19;10.70;91.50
47226;DHT22;32965;64.142;-21.912;2022-07-05T03:19:46;10.70;91.60
47226;DHT22;32965;64.142;-21.912;2022-07-05T03:22:12;10.70;91.60
47226;DHT22;32965;64.142;-21.912;2022-07-05T03:24:38;10.70;91.60
47226;DHT22;32965;64.142;-21.912;2022-07-05T03:27:04;10.70;91.60
47226;DHT22;32965;64.142;-21.912;2022-07-05T03:29:30;10.80;91.60
47226;DHT22;32965;64.142;-21.912;2022-07-05T03:32:06;10.80;91.40
47226;DHT22;32965;64.142;-21.912;2022-07-05T03:34:32;10.80;91.30
47226;DHT22;32965;64.142;-21.912;2022-07-05T03:37:08;10.80;91.30
47226;DHT22;32965;64.142;-21.912;2022-07-05T03:39:34;10.80;91.20
47226;DHT22;32965;64.142;-21.912;2022-07-05T03:42:00;10.60;91.10
47226;DHT22;32965;64.142;-21.912;2022-07-05T03:44:26;10.60;91.30
47226;DHT22;32965;64.142;-21.912;2022-07-05T03:46:52;10.60;91.50
47226;DHT22;32965;64.142;-21.912;2022-07-05T03:49:18;10.60;91.50
47226;DHT22;32965;64.142;-21.912;2022-07-05T03:51:44;10.50;91.50
47226;DHT22;32965;64.142;-21.912;2022-07-05T03:54:12;10.50;91.50
47226;DHT22;32965;64.142;-21.912;2022-07-05T03:56:38;10.50;91.50
47226;DHT22;32965;64.142;-21.912;2022-07-05T03:59:06;10.50;91.50
47226;DHT22;32965;64.142;-21.912;2022-07-05T04:01:32;10.40;91.60
47226;DHT22;32965;64.142;-21.912;2022-07-05T04:03:58;10.40;91.70
47226;DHT22;32965;64.142;-21.912;2022-07-05T04:06:25;10.50;91.70
47226;DHT22;32965;64.142;-21.912;2022-07-05T04:08:51;10.50;91.60
47226;DHT22;32965;64.142;-21.912;2022-07-05T04:11:17;10.50;91.40
47226;DHT22;32965;64.142;-21.912;2022-07-05T04:13:44;10.50;91.40
47226;DHT22;32965;64.142;-21.912;2022-07-05T04:16:10;10.50;91.30
47226;DHT22;32965;64.142;-21.912;2022-07-05T04:18:36;10.50;91.30
47226;DHT22;32965;64.142;-21.912;2022-07-05T04:21:05;10.40;91.10
47226;DHT22;32965;64.142;-21.912;2022-07-05T04:23:31;10.50;91.40
47226;DHT22;32965;64.142;-21.912;2022-07-05T04:25:57;10.40;91.50
47226;DHT22;32965;64.142;-21.912;2022-07-05T04:28:22;10.30;91.80
47226;DHT22;32965;64.142;-21.912;2022-07-05T04:30:49;10.40;92.00
47226;DHT22;32965;64.142;-21.912;2022-07-05T04:33:15;10.40;92.10
47226;DHT22;32965;64.142;-21.912;2022-07-05T04:35:42;10.40;92.10
47226;DHT22;32965;64.142;-21.912;2022-07-05T04:38:08;10.40;92.10
47226;DHT22;32965;64.142;-21.912;2022-07-05T04:40:34;10.40;92.10
47226;DHT22;32965;64.142;-21.912;2022-07-05T04:43:00;10.30;92.20
47226;DHT22;32965;64.142;-21.912;2022-07-05T04:45:25;10.40;92.30
47226;DHT22;32965;64.142;-21.912;2022-07-05T04:47:51;10.40;92.30
47226;DHT22;32965;64.142;-21.912;2022-07-05T04:50:20;10.40;92.30
47226;DHT22;32965;64.142;-21.912;2022-07-05T04:52:46;10.40;92.10
47226;DHT22;32965;64.142;-21.912;2022-07-05T04:55:13;10.40;92.10
47226;DHT22;32965;64.142;-21.912;2022-07-05T04:57:42;10.30;92.10
47226;DHT22;32965;64.142;-21.912;2022-07-05T05:00:12;10.30;92.10
47226;DHT22;32965;64.142;-21.912;2022-07-05T05:02:40;10.30;92.20
47226;DHT22;32965;64.142;-21.912;2022-07-05T05:05:08;10.40;92.20
47226;DHT22;32965;64.142;-21.912;2022-07-05T05:07:34;10.40;92.10
47226;DHT22;32965;64.142;-21.912;2022-07-05T05:10:01;10.30;92.00
47226;DHT22;32965;64.142;-21.912;2022-07-05T05:12:27;10.40;92.20
47226;DHT22;32965;64.142;-21.912;2022-07-05T05:14:53;10.40;92.10
47226;DHT22;32965;64.142;-21.912;2022-07-05T05:17:19;10.30;92.00
47226;DHT22;32965;64.142;-21.912;2022-07-05T05:19:45;10.30;92.10
47226;DHT22;32965;64.142;-21.912;2022-07-05T05:22:12;10.30;92.20
47226;DHT22;32965;64.142;-21.912;2022-07-05T05:24:38;10.30;92.20
47226;DHT22;32965;64.142;-21.912;2022-07-05T05:27:04;10.30;92.20
47226;DHT22;32965;64.142;-21.912;2022-07-05T05:29:30;10.40;92.30
47226;DHT22;32965;64.142;-21.912;2022-07-05T05:31:57;10.40;92.30
47226;DHT22;32965;64.142;-21.912;2022-07-05T05:34:24;10.40;92.30
47226;DHT22;32965;64.142;-21.912;2022-07-05T05:36:56;10.40;92.10
47226;DHT22;32965;64.142;-21.912;2022-07-05T05:39:22;10.40;92.10
47226;DHT22;32965;64.142;-21.912;2022-07-05T05:41:54;10.40;92.20
47226;DHT22;32965;64.142;-21.912;2022-07-05T05:44:22;10.40;92.20
47226;DHT22;32965;64.142;-21.912;2022-07-05T05:46:50;10.40;92.20
47226;DHT22;32965;64.142;-21.912;2022-07-05T05:49:15;10.40;92.30
47226;DHT22;32965;64.142;-21.912;2022-07-05T05:51:41;10.40;92.40
47226;DHT22;32965;64.142;-21.912;2022-07-05T05:54:10;10.50;92.60
47226;DHT22;32965;64.142;-21.912;2022-07-05T05:56:36;10.50;92.60
47226;DHT22;32965;64.142;-21.912;2022-07-05T05:59:03;10.50;92.70
47226;DHT22;32965;64.142;-21.912;2022-07-05T06:01:29;10.50;92.90
47226;DHT22;32965;64.142;-21.912;2022-07-05T06:03:55;10.50;93.00
47226;DHT22;32965;64.142;-21.912;2022-07-05T06:06:24;10.50;93.10
47226;DHT22;32965;64.142;-21.912;2022-07-05T06:08:51;10.50;93.30
47226;DHT22;32965;64.142;-21.912;2022-07-05T06:11:17;10.40;93.50
47226;DHT22;32965;64.142;-21.912;2022-07-05T06:13:44;10.30;93.80
47226;DHT22;32965;64.142;-21.912;2022-07-05T06:18:37;10.20;94.10
47226;DHT22;32965;64.142;-21.912;2022-07-05T06:21:02;10.30;94.50
47226;DHT22;32965;64.142;-21.912;2022-07-05T06:23:30;10.30;94.50
47226;DHT22;32965;64.142;-21.912;2022-07-05T06:25:55;10.20;94.60
47226;DHT22;32965;64.142;-21.912;2022-07-05T06:28:21;10.20;94.80
47226;DHT22;32965;64.142;-21.912;2022-07-05T06:30:47;10.20;94.90
47226;DHT22;32965;64.142;-21.912;2022-07-05T06:33:13;10.20;95.20
47226;DHT22;32965;64.142;-21.912;2022-07-05T06:35:39;10.10;95.30
47226;DHT22;32965;64.142;-21.912;2022-07-05T06:38:09;10.10;95.50
47226;DHT22;32965;64.142;-21.912;2022-07-05T06:40:39;10.10;95.60
47226;DHT22;32965;64.142;-21.912;2022-07-05T06:43:09;10.20;95.80
47226;DHT22;32965;64.142;-21.912;2022-07-05T06:45:43;10.10;95.80
47226;DHT22;32965;64.142;-21.912;2022-07-05T06:48:10;10.20;95.90
47226;DHT22;32965;64.142;-21.912;2022-07-05T06:50:39;10.20;96.00
47226;DHT22;32965;64.142;-21.912;2022-07-05T06:53:06;10.20;96.00
47226;DHT22;32965;64.142;-21.912;2022-07-05T06:55:32;10.20;96.00
47226;DHT22;32965;64.142;-21.912;2022-07-05T06:58:00;10.20;96.00
47226;DHT22;32965;64.142;-21.912;2022-07-05T07:00:27;10.20;96.20
47226;DHT22;32965;64.142;-21.912;2022-07-05T07:02:57;10.20;96.30
47226;DHT22;32965;64.142;-21.912;2022-07-05T07:05:23;10.20;96.40
47226;DHT22;32965;64.142;-21.912;2022-07-05T07:07:48;10.20;96.40
47226;DHT22;32965;64.142;-21.912;2022-07-05T07:10:33;10.20;96.70
47226;DHT22;32965;64.142;-21.912;2022-07-05T07:13:00;10.30;96.70
47226;DHT22;32965;64.142;-21.912;2022-07-05T07:15:26;10.30;96.70
47226;DHT22;32965;64.142;-21.912;2022-07-05T07:17:54;10.40;96.70
47226;DHT22;32965;64.142;-21.912;2022-07-05T07:20:20;10.50;96.60
47226;DHT22;32965;64.142;-21.912;2022-07-05T07:22:46;10.50;96.60
47226;DHT22;32965;64.142;-21.912;2022-07-05T07:25:12;10.50;96.40
47226;DHT22;32965;64.142;-21.912;2022-07-05T07:27:49;10.60;96.30
47226;DHT22;32965;64.142;-21.912;2022-07-05T07:30:18;10.60;96.20
47226;DHT22;32965;64.142;-21.912;2022-07-05T07:32:44;10.60;95.90
47226;DHT22;32965;64.142;-21.912;2022-07-05T07:35:10;10.60;96.10
47226;DHT22;32965;64.142;-21.912;2022-07-05T07:37:37;10.70;96.10
47226;DHT22;32965;64.142;-21.912;2022-07-05T07:40:06;10.70;96.00
47226;DHT22;32965;64.142;-21.912;2022-07-05T07:42:39;10.70;95.80
47226;DHT22;32965;64.142;-21.912;2022-07-05T07:45:06;10.80;95.80
47226;DHT22;32965;64.142;-21.912;2022-07-05T07:47:34;10.80;95.80
47226;DHT22;32965;64.142;-21.912;2022-07-05T07:50:00;10.90;95.80
47226;DHT22;32965;64.142;-21.912;2022-07-05T07:52:27;10.90;95.70
47226;DHT22;32965;64.142;-21.912;2022-07-05T07:54:55;10.90;95.70
47226;DHT22;32965;64.142;-21.912;2022-07-05T07:57:22;11.00;95.80
47226;DHT22;32965;64.142;-21.912;2022-07-05T07:59:48;11.00;95.60
47226;DHT22;32965;64.142;-21.912;2022-07-05T08:02:14;11.00;95.50
47226;DHT22;32965;64.142;-21.912;2022-07-05T08:04:40;11.10;95.40
47226;DHT22;32965;64.142;-21.912;2022-07-05T08:07:06;11.10;95.40
47226;DHT22;32965;64.142;-21.912;2022-07-05T08:09:32;11.10;95.50
47226;DHT22;32965;64.142;-21.912;2022-07-05T08:12:00;11.10;95.40
47226;DHT22;32965;64.142;-21.912;2022-07-05T08:14:25;11.10;95.50
47226;DHT22;32965;64.142;-21.912;2022-07-05T08:16:52;11.10;95.50
47226;DHT22;32965;64.142;-21.912;2022-07-05T08:19:19;11.10;95.70
47226;DHT22;32965;64.142;-21.912;2022-07-05T08:22:06;11.20;95.60
47226;DHT22;32965;64.142;-21.912;2022-07-05T08:24:36;11.20;95.70
47226;DHT22;32965;64.142;-21.912;2022-07-05T08:27:03;11.20;95.70
47226;DHT22;32965;64.142;-21.912;2022-07-05T08:29:30;11.20;95.70
47226;DHT22;32965;64.142;-21.912;2022-07-05T08:31:56;11.30;95.60
47226;DHT22;32965;64.142;-21.912;2022-07-05T08:34:23;11.30;95.70
47226;DHT22;32965;64.142;-21.912;2022-07-05T08:36:52;11.30;95.80
47226;DHT22;32965;64.142;-21.912;2022-07-05T08:39:18;11.30;96.10
47226;DHT22;32965;64.142;-21.912;2022-07-05T08:41:48;11.30;96.10
47226;DHT22;32965;64.142;-21.912;2022-07-05T08:44:18;11.30;96.10
47226;DHT22;32965;64.142;-21.912;2022-07-05T08:46:48;11.30;96.30
47226;DHT22;32965;64.142;-21.912;2022-07-05T08:49:14;11.30;96.40
47226;DHT22;32965;64.142;-21.912;2022-07-05T08:51:42;11.40;96.50
47226;DHT22;32965;64.142;-21.912;2022-07-05T08:54:10;11.50;96.50
47226;DHT22;32965;64.142;-21.912;2022-07-05T08:56:37;11.70;96.10
47226;DHT22;32965;64.142;-21.912;2022-07-05T08:59:03;11.80;95.80
47226;DHT22;32965;64.142;-21.912;2022-07-05T09:01:30;11.90;95.50
47226;DHT22;32965;64.142;-21.912;2022-07-05T09:04:06;12.00;95.20
47226;DHT22;32965;64.142;-21.912;2022-07-05T09:06:37;12.10;94.90
47226;DHT22;32965;64.142;-21.912;2022-07-05T09:09:06;12.00;95.00
47226;DHT22;32965;64.142;-21.912;2022-07-05T09:14:02;12.00;95.20
47226;DHT22;32965;64.142;-21.912;2022-07-05T09:16:30;12.10;95.20
47226;DHT22;32965;64.142;-21.912;2022-07-05T09:18:56;12.10;95.20
47226;DHT22;32965;64.142;-21.912;2022-07-05T09:21:26;12.10;95.20
47226;DHT22;32965;64.142;-21.912;2022-07-05T09:29:10;12.30;94.90
47226;DHT22;32965;64.142;-21.912;2022-07-05T09:31:49;12.30;94.90
47226;DHT22;32965;64.142;-21.912;2022-07-05T09:34:15;12.40;94.70
47226;DHT22;32965;64.142;-21.912;2022-07-05T09:44:47;12.50;94.00
47226;DHT22;32965;64.142;-21.912;2022-07-05T09:47:19;12.40;94.00
47226;DHT22;32965;64.142;-21.912;2022-07-05T09:49:58;12.50;93.80
47226;DHT22;32965;64.142;-21.912;2022-07-05T09:52:37;12.40;93.70
47226;DHT22;32965;64.142;-21.912;2022-07-05T09:55:16;12.40;93.30
47226;DHT22;32965;64.142;-21.912;2022-07-05T09:57:43;12.40;93.30
47226;DHT22;32965;64.142;-21.912;2022-07-05T10:00:17;12.30;93.10
47226;DHT22;32965;64.142;-21.912;2022-07-05T10:02:49;12.20;93.10
47226;DHT22;32965;64.142;-21.912;2022-07-05T10:05:20;12.20;93.20
47226;DHT22;32965;64.142;-21.912;2022-07-05T10:08:06;12.20;93.10
47226;DHT22;32965;64.142;-21.912;2022-07-05T10:10:32;12.20;93.00
47226;DHT22;32965;64.142;-21.912;2022-07-05T10:13:02;12.20;92.70
47226;DHT22;32965;64.142;-21.912;2022-07-05T10:15:31;12.20;92.50
47226;DHT22;32965;64.142;-21.912;2022-07-05T10:18:11;12.30;92.10
47226;DHT22;32965;64.142;-21.912;2022-07-05T10:20:38;12.50;91.80
47226;DHT22;32965;64.142;-21.912;2022-07-05T10:23:25;12.50;91.60
47226;DHT22;32965;64.142;-21.912;2022-07-05T10:25:52;12.60;91.10
47226;DHT22;32965;64.142;-21.912;2022-07-05T10:28:19;12.60;90.90
47226;DHT22;32965;64.142;-21.912;2022-07-05T10:30:48;12.60;91.00
47226;DHT22;32965;64.142;-21.912;2022-07-05T10:33:19;12.60;90.80
47226;DHT22;32965;64.142;-21.912;2022-07-05T10:35:53;12.60;90.80
47226;DHT22;32965;64.142;-21.912;2022-07-05T10:38:19;12.60;91.10
47226;DHT22;32965;64.142;-21.912;2022-07-05T10:40:50;12.70;91.10
47226;DHT22;32965;64.142;-21.912;2022-07-05T10:43:17;12.70;91.10
47226;DHT22;32965;64.142;-21.912;2022-07-05T10:45:48;12.80;91.00
47226;DHT22;32965;64.142;-21.912;2022-07-05T10:55:59;13.00;90.70
47226;DHT22;32965;64.142;-21.912;2022-07-05T11:14:04;13.20;90.00
47226;DHT22;32965;64.142;-21.912;2022-07-05T11:16:35;13.20;90.20
47226;DHT22;32965;64.142;-21.912;2022-07-05T11:19:11;13.30;90.30
47226;DHT22;32965;64.142;-21.912;2022-07-05T11:21:39;13.50;89.70
47226;DHT22;32965;64.142;-21.912;2022-07-05T11:24:21;13.40;90.10
47226;DHT22;32965;64.142;-21.912;2022-07-05T11:26:49;13.40;89.20
47226;DHT22;32965;64.142;-21.912;2022-07-05T11:29:40;13.50;89.40
47226;DHT22;32965;64.142;-21.912;2022-07-05T11:32:07;13.40;89.50
47226;DHT22;32965;64.142;-21.912;2022-07-05T11:34:34;13.40;90.00
47226;DHT22;32965;64.142;-21.912;2022-07-05T11:39:45;13.50;89.60
47226;DHT22;32965;64.142;-21.912;2022-07-05T11:42:22;13.50;89.60
47226;DHT22;32965;64.142;-21.912;2022-07-05T11:44:51;13.60;88.20
47226;DHT22;32965;64.142;-21.912;2022-07-05T11:47:19;13.60;88.40
47226;DHT22;32965;64.142;-21.912;2022-07-05T11:49:56;13.60;88.60
47226;DHT22;32965;64.142;-21.912;2022-07-05T11:52:26;13.70;88.10
47226;DHT22;32965;64.142;-21.912;2022-07-05T11:54:52;13.70;88.50
47226;DHT22;32965;64.142;-21.912;2022-07-05T11:57:19;13.70;88.60
47226;DHT22;32965;64.142;-21.912;2022-07-05T11:59:45;13.70;88.00
47226;DHT22;32965;64.142;-21.912;2022-07-05T12:02:11;13.70;88.00
47226;DHT22;32965;64.142;-21.912;2022-07-05T12:04:37;13.70;88.20
47226;DHT22;32965;64.142;-21.912;2022-07-05T12:07:04;13.80;87.80
47226;DHT22;32965;64.142;-21.912;2022-07-05T12:09:33;13.80;87.00
47226;DHT22;32965;64.142;-21.912;2022-07-05T12:12:27;13.80;86.80
47226;DHT22;32965;64.142;-21.912;2022-07-05T12:15:11;13.80;86.40
47226;DHT22;32965;64.142;-21.912;2022-07-05T12:17:40;13.70;87.10
47226;DHT22;32965;64.142;-21.912;2022-07-05T12:20:12;13.80;86.40
47226;DHT22;32965;64.142;-21.912;2022-07-05T12:22:43;13.90;86.40
47226;DHT22;32965;64.142;-21.912;2022-07-05T12:25:12;13.90;86.20
47226;DHT22;32965;64.142;-21.912;2022-07-05T12:27:40;14.00;85.80
47226;DHT22;32965;64.142;-21.912;2022-07-05T12:30:08;14.00;85.90
47226;DHT22;32965;64.142;-21.912;2022-07-05T12:32:57;14.10;85.10
47226;DHT22;32965;64.142;-21.912;2022-07-05T12:35:42;14.10;85.20
47226;DHT22;32965;64.142;-21.912;2022-07-05T12:38:17;14.10;84.50
47226;DHT22;32965;64.142;-21.912;2022-07-05T12:40:57;14.10;85.10
47226;DHT22;32965;64.142;-21.912;2022-07-05T12:43:24;14.20;85.30
47226;DHT22;32965;64.142;-21.912;2022-07-05T12:48:35;14.50;83.30
47226;DHT22;32965;64.142;-21.912;2022-07-05T12:51:04;14.50;83.30
47226;DHT22;32965;64.142;-21.912;2022-07-05T12:53:30;14.60;83.50
47226;DHT22;32965;64.142;-21.912;2022-07-05T12:56:15;14.60;83.50
47226;DHT22;32965;64.142;-21.912;2022-07-05T12:59:02;14.60;83.30
47226;DHT22;32965;64.142;-21.912;2022-07-05T13:01:42;14.70;83.20
47226;DHT22;32965;64.142;-21.912;2022-07-05T13:04:08;14.70;82.50
47226;DHT22;32965;64.142;-21.912;2022-07-05T13:12:19;15.00;81.90
47226;DHT22;32965;64.142;-21.912;2022-07-05T13:14:53;15.10;81.40
47226;DHT22;32965;64.142;-21.912;2022-07-05T13:17:23;15.20;80.60
47226;DHT22;32965;64.142;-21.912;2022-07-05T13:19:50;15.20;80.50
47226;DHT22;32965;64.142;-21.912;2022-07-05T13:22:17;15.20;80.20
47226;DHT22;32965;64.142;-21.912;2022-07-05T13:24:44;15.30;80.80
47226;DHT22;32965;64.142;-21.912;2022-07-05T13:27:12;15.40;79.30
47226;DHT22;32965;64.142;-21.912;2022-07-05T13:29:41;15.40;79.40
47226;DHT22;32965;64.142;-21.912;2022-07-05T13:32:07;15.50;79.00
47226;DHT22;32965;64.142;-21.912;2022-07-05T13:34:34;15.50;79.00
47226;DHT22;32965;64.142;-21.912;2022-07-05T13:37:01;15.50;79.90
47226;DHT22;32965;64.142;-21.912;2022-07-05T13:39:27;15.60;79.10
47226;DHT22;32965;64.142;-21.912;2022-07-05T13:41:55;15.70;79.00
47226;DHT22;32965;64.142;-21.912;2022-07-05T13:44:22;15.80;78.10
47226;DHT22;32965;64.142;-21.912;2022-07-05T13:46:49;15.80;77.40
47226;DHT22;32965;64.142;-21.912;2022-07-05T13:49:16;15.90;78.00
47226;DHT22;32965;64.142;-21.912;2022-07-05T13:51:42;16.00;76.90
47226;DHT22;32965;64.142;-21.912;2022-07-05T13:54:08;16.00;77.10
47226;DHT22;32965;64.142;-21.912;2022-07-05T13:56:34;16.20;76.90
47226;DHT22;32965;64.142;-21.912;2022-07-05T13:59:05;16.20;78.30
47226;DHT22;32965;64.142;-21.912;2022-07-05T14:01:34;16.30;78.70
47226;DHT22;32965;64.142;-21.912;2022-07-05T14:04:01;16.40;78.90
47226;DHT22;32965;64.142;-21.912;2022-07-05T14:06:29;16.50;79.00
47226;DHT22;32965;64.142;-21.912;2022-07-05T14:08:55;16.70;77.80
47226;DHT22;32965;64.142;-21.912;2022-07-05T14:11:21;16.70;76.70
47226;DHT22;32965;64.142;-21.912;2022-07-05T14:13:47;16.80;77.20
47226;DHT22;32965;64.142;-21.912;2022-07-05T14:16:14;16.90;76.20
47226;DHT22;32965;64.142;-21.912;2022-07-05T14:18:40;16.90;75.70
47226;DHT22;32965;64.142;-21.912;2022-07-05T14:21:07;16.80;76.10
47226;DHT22;32965;64.142;-21.912;2022-07-05T14:23:36;16.80;76.80
47226;DHT22;32965;64.142;-21.912;2022-07-05T14:26:02;16.70;76.60
47226;DHT22;32965;64.142;-21.912;2022-07-05T14:28:29;16.70;77.10
47226;DHT22;32965;64.142;-21.912;2022-07-05T14:30:55;16.70;77.80
47226;DHT22;32965;64.142;-21.912;2022-07-05T14:33:21;16.70;77.80
47226;DHT22;32965;64.142;-21.912;2022-07-05T14:35:47;16.80;77.70
47226;DHT22;32965;64.142;-21.912;2022-07-05T14:38:13;16.80;77.60
47226;DHT22;32965;64.142;-21.912;2022-07-05T14:40:39;16.90;77.90
47226;DHT22;32965;64.142;-21.912;2022-07-05T14:43:04;17.00;77.80
47226;DHT22;32965;64.142;-21.912;2022-07-05T14:45:30;17.00;77.40
47226;DHT22;32965;64.142;-21.912;2022-07-05T14:47:56;17.10;77.40
47226;DHT22;32965;64.142;-21.912;2022-07-05T14:50:22;17.10;77.50
47226;DHT22;32965;64.142;-21.912;2022-07-05T14:52:48;17.20;77.30
47226;DHT22;32965;64.142;-21.912;2022-07-05T14:55:15;17.20;76.90
47226;DHT22;32965;64.142;-21.912;2022-07-05T14:57:43;17.30;76.60
47226;DHT22;32965;64.142;-21.912;2022-07-05T15:00:11;17.20;76.30
47226;DHT22;32965;64.142;-21.912;2022-07-05T15:02:38;17.20;76.40
47226;DHT22;32965;64.142;-21.912;2022-07-05T15:05:05;17.20;76.80
47226;DHT22;32965;64.142;-21.912;2022-07-05T15:07:33;17.30;76.80
47226;DHT22;32965;64.142;-21.912;2022-07-05T15:09:59;17.30;76.00
47226;DHT22;32965;64.142;-21.912;2022-07-05T15:12:26;17.30;76.00
47226;DHT22;32965;64.142;-21.912;2022-07-05T15:14:52;17.30;76.00
47226;DHT22;32965;64.142;-21.912;2022-07-05T15:17:17;17.20;76.10
47226;DHT22;32965;64.142;-21.912;2022-07-05T15:19:43;17.20;76.50
47226;DHT22;32965;64.142;-21.912;2022-07-05T15:22:10;17.20;76.60
47226;DHT22;32965;64.142;-21.912;2022-07-05T15:24:42;17.20;76.50
47226;DHT22;32965;64.142;-21.912;2022-07-05T15:27:08;17.30;76.50
47226;DHT22;32965;64.142;-21.912;2022-07-05T15:29:36;17.30;76.50
47226;DHT22;32965;64.142;-21.912;2022-07-05T15:32:02;17.40;76.50
47226;DHT22;32965;64.142;-21.912;2022-07-05T15:34:28;17.50;76.50
47226;DHT22;32965;64.142;-21.912;2022-07-05T15:36:54;17.60;75.80
47226;DHT22;32965;64.142;-21.912;2022-07-05T15:39:20;17.50;75.20
47226;DHT22;32965;64.142;-21.912;2022-07-05T15:41:47;17.50;75.20
47226;DHT22;32965;64.142;-21.912;2022-07-05T15:44:13;17.40;75.10
47226;DHT22;32965;64.142;-21.912;2022-07-05T15:46:39;17.40;75.50
47226;DHT22;32965;64.142;-21.912;2022-07-05T15:49:23;17.40;75.80
47226;DHT22;32965;64.142;-21.912;2022-07-05T15:51:49;17.50;76.00
47226;DHT22;32965;64.142;-21.912;2022-07-05T15:54:15;17.40;76.20
47226;DHT22;32965;64.142;-21.912;2022-07-05T15:56:42;17.60;76.50
47226;DHT22;32965;64.142;-21.912;2022-07-05T15:59:08;17.60;76.70
47226;DHT22;32965;64.142;-21.912;2022-07-05T16:01:34;17.60;76.60
47226;DHT22;32965;64.142;-21.912;2022-07-05T16:04:01;17.60;76.20